Time;durP1;ratioP1;P1;durP2;ratioP2;P2;SDS_P1;SDS_P2;PMS_P1;PMS_P2;Temp;Humidity;BMP_temperature;BMP_pressure;BME280_temperature;BME280_humidity;BME280_pressure;Samples;Min_cycle;Max_cycle;Signal;HPM_P1;HPM_P2
2021/11/26 00:01:42;;;;;;;6.00;2.90;;;6.40;99.90;;;;;;5065247;28;20165;-61
2021/11/26 00:04:09;;;;;;;7.37;3.17;;;6.40;99.90;;;;;;5066463;28;20234;-61
2021/11/26 00:06:35;;;;;;;5.87;2.77;;;6.40;99.90;;;;;;5065849;28;20243;-63
2021/11/26 00:09:01;;;;;;;4.37;2.27;;;6.30;99.90;;;;;;5066224;28;20176;-61
2021/11/26 00:11:27;;;;;;;3.87;2.70;;;6.30;99.90;;;;;;5066089;28;20185;-62
2021/11/26 00:14:03;;;;;;;8.07;2.20;;;6.40;99.90;;;;;;5065993;28;20172;-62
2021/11/26 00:16:35;;;;;;;3.80;2.27;;;6.40;99.90;;;;;;5065918;28;20173;-61
2021/11/26 00:19:04;;;;;;;6.13;2.47;;;6.60;99.90;;;;;;5066303;28;20164;-61
2021/11/26 00:21:30;;;;;;;5.50;2.23;;;6.60;99.90;;;;;;5065972;28;20230;-62
2021/11/26 00:23:56;;;;;;;4.97;1.93;;;7.00;99.90;;;;;;5066327;28;20165;-61
2021/11/26 00:26:22;;;;;;;2.83;2.10;;;7.00;99.90;;;;;;5066024;28;20203;-62
2021/11/26 00:28:47;;;;;;;7.97;2.00;;;6.90;99.90;;;;;;5066228;28;20262;-62
2021/11/26 00:31:13;;;;;;;4.43;2.30;;;6.90;99.90;;;;;;5066158;28;20191;-62
2021/11/26 00:33:38;;;;;;;6.37;2.00;;;6.80;99.90;;;;;;5066105;28;20203;-62
2021/11/26 00:36:04;;;;;;;8.97;2.03;;;6.90;99.90;;;;;;5065895;28;20240;-62
2021/11/26 00:38:30;;;;;;;3.23;1.90;;;6.80;99.90;;;;;;5066033;28;20175;-61
2021/11/26 00:40:56;;;;;;;3.33;1.83;;;6.90;99.90;;;;;;5066216;28;20168;-62
2021/11/26 00:43:21;;;;;;;3.83;1.40;;;6.80;99.90;;;;;;5066019;28;20255;-61
2021/11/26 00:45:47;;;;;;;5.10;1.73;;;6.70;99.90;;;;;;5066190;28;20176;-62
2021/11/26 00:48:13;;;;;;;3.90;1.90;;;6.60;99.90;;;;;;5065770;28;20183;-61
2021/11/26 00:50:39;;;;;;;5.80;1.50;;;6.50;99.90;;;;;;5065700;28;20225;-62
2021/11/26 00:53:05;;;;;;;8.07;1.97;;;6.50;99.90;;;;;;5065976;28;20153;-62
2021/11/26 00:55:31;;;;;;;4.93;2.10;;;6.70;99.90;;;;;;5066027;28;20161;-62
2021/11/26 00:57:57;;;;;;;3.57;1.57;;;6.60;99.90;;;;;;5065692;28;20224;-61
2021/11/26 01:00:24;;;;;;;4.63;1.80;;;6.60;99.90;;;;;;5065991;28;20176;-62
2021/11/26 01:02:50;;;;;;;4.80;2.13;;;6.60;99.90;;;;;;5065759;28;20165;-62
2021/11/26 01:05:16;;;;;;;5.13;2.00;;;6.60;99.90;;;;;;5065895;28;20183;-62
2021/11/26 01:07:43;;;;;;;4.07;1.40;;;6.70;99.90;;;;;;5065449;28;20283;-62
2021/11/26 01:10:15;;;;;;;3.83;1.83;;;7.00;99.90;;;;;;5065796;28;20171;-62
2021/11/26 01:12:41;;;;;;;7.83;2.00;;;7.20;99.90;;;;;;5066919;28;20181;-62
2021/11/26 01:15:09;;;;;;;4.83;1.70;;;7.40;99.90;;;;;;5069642;28;20249;-62
2021/11/26 01:17:37;;;;;;;7.33;2.23;;;7.50;99.90;;;;;;5069420;28;20168;-62
2021/11/26 01:20:05;;;;;;;3.97;1.60;;;7.60;99.90;;;;;;5068354;28;20169;-61
2021/11/26 01:22:30;;;;;;;2.43;1.43;;;7.60;99.90;;;;;;5069182;28;20184;-61
2021/11/26 01:24:56;;;;;;;7.03;2.07;;;7.30;99.90;;;;;;5069754;28;20204;-62
2021/11/26 01:27:22;;;;;;;3.67;1.90;;;7.20;99.90;;;;;;5069314;28;20181;-62
2021/11/26 01:29:47;;;;;;;6.17;2.40;;;7.30;99.90;;;;;;5069486;28;20188;-61
2021/11/26 01:32:13;;;;;;;8.97;2.67;;;7.20;99.90;;;;;;5069291;28;20199;-61
2021/11/26 01:34:39;;;;;;;7.23;2.53;;;7.30;99.90;;;;;;5067964;28;20226;-62
2021/11/26 01:37:05;;;;;;;4.87;2.70;;;7.10;99.90;;;;;;5068873;28;20630;-62
2021/11/26 01:39:30;;;;;;;7.60;2.27;;;7.20;99.90;;;;;;5069209;28;20161;-62
2021/11/26 01:41:56;;;;;;;4.80;2.60;;;7.30;99.90;;;;;;5069342;28;20233;-62
2021/11/26 01:44:22;;;;;;;5.73;2.67;;;7.30;99.90;;;;;;5069122;28;20199;-61
2021/11/26 01:46:47;;;;;;;5.60;2.60;;;7.20;99.90;;;;;;5068804;28;20228;-62
2021/11/26 01:49:14;;;;;;;7.83;2.73;;;7.10;99.90;;;;;;5068965;28;20172;-61
2021/11/26 01:51:40;;;;;;;6.30;2.43;;;7.10;99.90;;;;;;5068437;28;20219;-62
2021/11/26 01:54:07;;;;;;;4.07;2.23;;;6.90;99.90;;;;;;5069120;28;20153;-61
2021/11/26 01:56:34;;;;;;;9.43;2.60;;;6.90;99.90;;;;;;5068832;28;20183;-62
2021/11/26 01:59:00;;;;;;;4.03;2.20;;;7.00;99.90;;;;;;5067425;28;20622;-62
2021/11/26 02:01:26;;;;;;;8.10;2.50;;;6.80;99.90;;;;;;5068807;28;20250;-62
2021/11/26 02:03:52;;;;;;;8.57;2.80;;;6.80;99.90;;;;;;5067737;28;20168;-62
2021/11/26 02:06:18;;;;;;;8.37;3.23;;;6.90;99.90;;;;;;5068248;28;20556;-62
2021/11/26 02:08:43;;;;;;;7.67;3.00;;;7.00;99.90;;;;;;5068379;28;20169;-61
2021/11/26 02:11:09;;;;;;;8.23;3.50;;;6.90;99.90;;;;;;5068587;28;20276;-62
2021/11/26 02:13:35;;;;;;;14.93;3.97;;;7.00;99.90;;;;;;5068659;28;20156;-61
2021/11/26 02:16:03;;;;;;;7.63;3.63;;;6.80;99.90;;;;;;5068475;28;20295;-62
2021/11/26 02:18:29;;;;;;;9.63;3.83;;;6.70;99.90;;;;;;5068278;28;20158;-61
2021/11/26 02:20:54;;;;;;;10.23;3.57;;;6.60;99.90;;;;;;5066773;28;20180;-61
2021/11/26 02:23:20;;;;;;;12.73;4.40;;;6.50;99.90;;;;;;5068428;28;20165;-61
2021/11/26 02:25:46;;;;;;;10.83;4.17;;;6.50;99.90;;;;;;5067268;28;20172;-62
2021/11/26 02:28:14;;;;;;;9.67;4.30;;;6.60;99.90;;;;;;5068051;28;20160;-62
2021/11/26 02:30:40;;;;;;;16.90;4.87;;;6.70;99.90;;;;;;5068311;28;20190;-62
2021/11/26 02:33:18;;;;;;;12.53;4.73;;;6.80;99.90;;;;;;5068237;28;20157;-62
2021/11/26 02:35:47;;;;;;;13.50;4.73;;;6.70;99.90;;;;;;5067929;28;20161;-62
2021/11/26 02:38:13;;;;;;;13.13;5.27;;;6.80;99.90;;;;;;5067874;28;20169;-62
2021/11/26 02:40:41;;;;;;;9.07;3.60;;;6.90;99.90;;;;;;5068286;28;20192;-61
2021/11/26 02:43:08;;;;;;;15.17;5.70;;;6.80;99.90;;;;;;5068105;28;20156;-61
2021/11/26 02:45:35;;;;;;;14.10;4.73;;;6.60;99.90;;;;;;5068005;28;20157;-62
2021/11/26 02:48:00;;;;;;;9.00;5.17;;;6.60;99.90;;;;;;5067711;28;20176;-61
2021/11/26 02:50:27;;;;;;;9.47;4.67;;;6.60;99.90;;;;;;5066580;28;20168;-61
2021/11/26 02:52:54;;;;;;;18.07;5.50;;;6.70;99.90;;;;;;5067485;28;20188;-62
2021/11/26 02:55:22;;;;;;;15.40;5.03;;;6.60;99.90;;;;;;5067668;28;20205;-61
2021/11/26 02:57:48;;;;;;;11.90;4.97;;;6.80;99.90;;;;;;5067605;28;20260;-62
2021/11/26 03:00:18;;;;;;;21.80;5.07;;;7.00;99.90;;;;;;5067814;28;20515;-61
2021/11/26 03:02:44;;;;;;;18.87;5.00;;;7.00;99.90;;;;;;5067768;28;20521;-61
2021/11/26 03:05:11;;;;;;;21.37;5.00;;;6.80;99.90;;;;;;5067614;28;20210;-62
2021/11/26 03:07:36;;;;;;;14.60;5.13;;;6.90;99.90;;;;;;5066958;28;20172;-62
2021/11/26 03:10:04;;;;;;;17.57;5.30;;;6.70;99.90;;;;;;5067530;28;20211;-61
2021/11/26 03:12:30;;;;;;;20.10;5.23;;;6.60;99.90;;;;;;5067287;28;20253;-61
2021/11/26 03:14:56;;;;;;;18.13;5.27;;;6.70;99.90;;;;;;5067111;28;20270;-62
2021/11/26 03:17:22;;;;;;;17.50;4.90;;;6.60;99.90;;;;;;5066177;28;20408;-61
2021/11/26 03:19:48;;;;;;;16.90;5.07;;;6.60;99.90;;;;;;5067218;28;20168;-61
2021/11/26 03:22:14;;;;;;;18.00;4.50;;;6.70;99.90;;;;;;5067140;28;20168;-61
2021/11/26 03:24:39;;;;;;;17.23;5.20;;;6.60;99.90;;;;;;5067360;28;20180;-61
2021/11/26 03:27:05;;;;;;;19.50;5.33;;;6.80;99.90;;;;;;5067049;28;20223;-61
2021/11/26 03:29:31;;;;;;;15.23;5.10;;;6.80;99.90;;;;;;5067078;28;20573;-61
2021/11/26 03:31:58;;;;;;;17.23;5.07;;;6.80;99.90;;;;;;5065827;28;20226;-61
2021/11/26 03:34:24;;;;;;;25.87;5.23;;;6.80;99.90;;;;;;5066992;28;20210;-61
2021/11/26 03:36:49;;;;;;;19.53;5.03;;;6.70;99.90;;;;;;5066494;28;20172;-61
2021/11/26 03:39:15;;;;;;;18.87;5.00;;;6.60;99.90;;;;;;5065682;28;20157;-62
2021/11/26 03:41:40;;;;;;;22.80;6.43;;;6.60;99.90;;;;;;5066970;28;20168;-62
2021/11/26 03:44:06;;;;;;;16.50;5.57;;;6.50;99.90;;;;;;5065627;28;20275;-62
2021/11/26 03:46:32;;;;;;;13.17;4.80;;;6.30;99.90;;;;;;5066884;28;20172;-62
2021/11/26 03:48:58;;;;;;;18.47;5.00;;;6.20;99.90;;;;;;5066619;28;20169;-61
2021/11/26 03:51:23;;;;;;;19.13;5.13;;;6.30;99.90;;;;;;5066342;28;20197;-62
2021/11/26 03:53:49;;;;;;;16.23;5.33;;;6.30;99.90;;;;;;5066936;28;20165;-61
2021/11/26 03:56:15;;;;;;;14.00;5.00;;;6.20;99.90;;;;;;5066557;28;20199;-61
2021/11/26 03:58:40;;;;;;;23.90;4.90;;;6.30;99.90;;;;;;5066712;28;20161;-62
2021/11/26 04:01:06;;;;;;;16.37;5.07;;;6.30;99.90;;;;;;5065291;28;20181;-61
2021/11/26 04:03:31;;;;;;;20.93;5.13;;;6.30;99.90;;;;;;5066564;28;20169;-61
2021/11/26 04:05:57;;;;;;;24.97;5.00;;;6.30;99.90;;;;;;5064938;28;20176;-61
2021/11/26 04:08:23;;;;;;;16.37;5.23;;;6.30;99.90;;;;;;5066367;28;20437;-62
2021/11/26 04:10:48;;;;;;;20.30;5.53;;;6.30;99.90;;;;;;5066380;28;20188;-62
2021/11/26 04:13:17;;;;;;;15.57;5.03;;;6.40;99.90;;;;;;5066542;28;20255;-61
2021/11/26 04:15:43;;;;;;;16.00;4.30;;;6.30;99.90;;;;;;5066307;28;20330;-61
2021/11/26 04:18:09;;;;;;;16.10;5.10;;;6.50;99.90;;;;;;5066380;28;20182;-61
2021/11/26 04:20:38;;;;;;;20.90;4.73;;;6.60;99.90;;;;;;5066356;28;20215;-62
2021/11/26 04:23:05;;;;;;;15.50;5.50;;;6.50;99.90;;;;;;5065981;28;20173;-62
2021/11/26 04:25:31;;;;;;;18.20;4.90;;;6.50;99.90;;;;;;5066398;28;20163;-62
2021/11/26 04:27:56;;;;;;;16.47;4.67;;;6.50;99.90;;;;;;5066196;28;20165;-62
2021/11/26 04:30:24;;;;;;;15.93;4.53;;;6.50;99.90;;;;;;5066233;28;20168;-61
2021/11/26 04:32:51;;;;;;;18.30;4.73;;;6.40;99.90;;;;;;5064939;28;20188;-61
2021/11/26 04:35:17;;;;;;;22.50;4.93;;;6.30;99.90;;;;;;5066230;28;20692;-62
2021/11/26 04:37:43;;;;;;;15.93;4.53;;;6.40;99.90;;;;;;5065852;28;20257;-61
2021/11/26 04:40:11;;;;;;;17.93;5.37;;;6.30;99.90;;;;;;5066092;28;20172;-62
2021/11/26 04:42:37;;;;;;;22.30;4.77;;;6.40;99.90;;;;;;5066156;28;20165;-62
2021/11/26 04:45:05;;;;;;;16.57;5.10;;;6.30;99.90;;;;;;5066190;28;20160;-61
2021/11/26 04:47:31;;;;;;;16.63;4.93;;;6.40;99.90;;;;;;5066795;28;20191;-62
2021/11/26 04:49:58;;;;;;;11.90;4.00;;;6.30;99.90;;;;;;5070385;28;20176;-62
2021/11/26 04:52:23;;;;;;;16.93;4.30;;;6.40;99.90;;;;;;5069672;28;20283;-62
2021/11/26 04:54:49;;;;;;;11.63;3.87;;;6.30;99.90;;;;;;5070140;28;20263;-61
2021/11/26 04:57:15;;;;;;;21.60;5.20;;;6.20;99.90;;;;;;5069798;28;20169;-61
2021/11/26 04:59:41;;;;;;;12.70;4.10;;;6.20;99.90;;;;;;5069815;28;20165;-61
2021/11/26 05:02:06;;;;;;;19.88;5.50;;;6.30;99.90;;;;;;5068884;28;20468;-61
2021/11/26 05:04:32;;;;;;;12.13;3.93;;;6.10;99.90;;;;;;5069777;28;20634;-61
2021/11/26 05:07:00;;;;;;;18.97;4.50;;;6.10;99.90;;;;;;5069233;28;20191;-62
2021/11/26 05:09:26;;;;;;;21.33;4.47;;;6.10;99.90;;;;;;5069661;28;20171;-61
2021/11/26 05:11:54;;;;;;;19.53;5.03;;;6.10;99.90;;;;;;5068503;28;20260;-61
2021/11/26 05:14:20;;;;;;;18.05;5.00;;;6.10;99.90;;;;;;5069003;28;20458;-62
2021/11/26 05:16:46;;;;;;;11.23;4.67;;;6.10;99.90;;;;;;5069778;28;20157;-61
2021/11/26 05:19:12;;;;;;;13.73;4.40;;;6.10;99.90;;;;;;5068111;28;20672;-61
2021/11/26 05:21:37;;;;;;;15.23;4.53;;;6.20;99.90;;;;;;5069107;28;21043;-61
2021/11/26 05:24:03;;;;;;;16.23;4.40;;;6.10;99.90;;;;;;5069657;28;20195;-61
2021/11/26 05:26:29;;;;;;;13.47;4.60;;;6.10;99.90;;;;;;5069516;28;20168;-62
2021/11/26 05:28:54;;;;;;;22.60;4.83;;;5.90;99.90;;;;;;5069274;28;20211;-61
2021/11/26 05:31:21;;;;;;;20.60;5.37;;;5.90;99.90;;;;;;5068332;28;20470;-62
2021/11/26 05:33:48;;;;;;;14.97;4.73;;;6.00;99.90;;;;;;5069227;28;20187;-61
2021/11/26 05:36:13;;;;;;;18.43;5.20;;;6.00;99.90;;;;;;5068914;28;20518;-61
2021/11/26 05:38:39;;;;;;;15.90;5.18;;;6.00;99.90;;;;;;5068350;28;20415;-61
2021/11/26 05:41:05;;;;;;;18.07;5.10;;;6.00;99.90;;;;;;5069215;28;20164;-61
2021/11/26 05:43:30;;;;;;;22.13;5.37;;;6.10;99.90;;;;;;5069237;28;20188;-61
2021/11/26 05:45:56;;;;;;;17.73;4.47;;;6.10;99.90;;;;;;5067676;28;20161;-61
2021/11/26 05:48:22;;;;;;;13.37;4.53;;;5.90;99.90;;;;;;5068903;28;20237;-61
2021/11/26 05:50:47;;;;;;;17.60;5.03;;;5.80;99.90;;;;;;5068733;28;20207;-61
2021/11/26 05:53:13;;;;;;;16.73;6.03;;;5.80;99.90;;;;;;5068839;28;20169;-61
2021/11/26 05:55:39;;;;;;;16.73;4.77;;;5.70;99.90;;;;;;5068755;28;20566;-61
2021/11/26 05:58:05;;;;;;;18.63;5.07;;;5.70;99.90;;;;;;5068840;28;20164;-61
2021/11/26 06:00:32;;;;;;;18.27;5.17;;;5.60;99.90;;;;;;5067572;28;20160;-61
2021/11/26 06:02:59;;;;;;;15.27;5.07;;;5.60;99.90;;;;;;5067389;28;20169;-61
2021/11/26 06:05:25;;;;;;;17.47;5.40;;;5.50;99.90;;;;;;5068820;28;20295;-61
2021/11/26 06:07:52;;;;;;;18.57;5.47;;;5.60;99.90;;;;;;5068098;28;20668;-61
2021/11/26 06:10:18;;;;;;;17.47;4.73;;;5.70;99.90;;;;;;5067256;28;20199;-61
2021/11/26 06:12:46;;;;;;;16.00;4.73;;;5.50;99.90;;;;;;5068556;28;20263;-61
2021/11/26 06:15:14;;;;;;;13.30;4.87;;;5.50;99.90;;;;;;5068085;28;20220;-61
2021/11/26 06:17:41;;;;;;;13.27;5.07;;;5.40;99.90;;;;;;5068243;28;20165;-61
2021/11/26 06:20:08;;;;;;;22.80;4.97;;;5.50;99.90;;;;;;5068418;28;20224;-61
2021/11/26 06:22:33;;;;;;;19.77;4.43;;;5.50;99.90;;;;;;5068249;28;20197;-61
2021/11/26 06:24:59;;;;;;;11.23;4.53;;;5.40;99.90;;;;;;5068473;28;20183;-61
2021/11/26 06:27:25;;;;;;;10.70;4.67;;;5.30;99.90;;;;;;5068119;28;20177;-62
2021/11/26 06:29:50;;;;;;;15.47;4.73;;;5.30;99.90;;;;;;5068223;28;20165;-61
2021/11/26 06:32:16;;;;;;;21.10;5.00;;;5.30;99.90;;;;;;5067894;28;20322;-61
2021/11/26 06:34:42;;;;;;;15.23;4.60;;;5.20;99.90;;;;;;5068006;28;20165;-61
2021/11/26 06:37:08;;;;;;;12.57;4.67;;;5.40;99.90;;;;;;5067515;28;20214;-63
2021/11/26 06:39:33;;;;;;;19.50;5.80;;;5.60;99.90;;;;;;5067086;28;20442;-62
2021/11/26 06:41:59;;;;;;;15.57;4.83;;;5.50;99.90;;;;;;5067863;28;20165;-62
2021/11/26 06:44:25;;;;;;;17.60;4.97;;;5.50;99.90;;;;;;5067813;28;20164;-62
2021/11/26 06:46:51;;;;;;;14.90;4.50;;;5.30;99.90;;;;;;5067891;28;20210;-62
2021/11/26 06:49:17;;;;;;;23.10;4.73;;;5.30;99.90;;;;;;5067453;28;20256;-62
2021/11/26 06:51:43;;;;;;;9.80;5.03;;;5.30;99.90;;;;;;5067126;28;20191;-62
2021/11/26 06:54:08;;;;;;;16.33;4.60;;;5.20;99.90;;;;;;5067858;28;20168;-63
2021/11/26 06:56:34;;;;;;;12.17;4.33;;;5.20;99.90;;;;;;5067814;28;20157;-63
2021/11/26 06:59:00;;;;;;;17.38;5.32;;;5.20;99.90;;;;;;5066802;28;20411;-62
2021/11/26 07:01:26;;;;;;;15.60;4.73;;;5.20;99.90;;;;;;5067559;28;20165;-62
2021/11/26 07:03:54;;;;;;;22.13;4.93;;;5.10;99.90;;;;;;5067348;28;20180;-62
2021/11/26 07:06:20;;;;;;;20.17;4.93;;;5.20;99.90;;;;;;5066987;28;20180;-62
2021/11/26 07:08:46;;;;;;;18.67;4.80;;;5.30;99.90;;;;;;5067116;28;20630;-62
2021/11/26 07:11:12;;;;;;;18.80;5.07;;;5.30;99.90;;;;;;5065850;28;20223;-63
2021/11/26 07:13:37;;;;;;;19.03;4.47;;;5.10;99.90;;;;;;5067399;28;20161;-63
2021/11/26 07:16:03;;;;;;;15.60;4.47;;;5.00;99.90;;;;;;5067185;28;20212;-62
2021/11/26 07:18:29;;;;;;;15.10;4.33;;;5.10;99.90;;;;;;5066925;28;20183;-62
2021/11/26 07:20:55;;;;;;;22.67;4.67;;;5.10;99.90;;;;;;5066758;28;20165;-62
2021/11/26 07:23:20;;;;;;;13.40;4.97;;;5.20;99.90;;;;;;5065616;28;20168;-62
2021/11/26 07:25:46;;;;;;;13.50;4.40;;;5.20;99.90;;;;;;5066752;28;20732;-62
2021/11/26 07:28:12;;;;;;;15.50;5.07;;;5.20;99.90;;;;;;5066475;28;20621;-62
2021/11/26 07:30:39;;;;;;;15.63;5.23;;;5.20;99.90;;;;;;5066506;28;20175;-62
2021/11/26 07:33:06;;;;;;;17.60;4.37;;;5.10;99.90;;;;;;5066703;28;20184;-62
2021/11/26 07:35:32;;;;;;;17.63;5.00;;;5.00;99.90;;;;;;5065379;28;20161;-62
2021/11/26 07:37:58;;;;;;;22.27;4.83;;;4.90;99.90;;;;;;5066286;28;20169;-62
2021/11/26 07:40:23;;;;;;;14.53;4.60;;;5.00;99.90;;;;;;5066258;28;20259;-62
2021/11/26 07:42:49;;;;;;;39.87;6.20;;;5.00;99.90;;;;;;5066732;28;20165;-62
2021/11/26 07:45:15;;;;;;;19.73;5.03;;;5.00;99.90;;;;;;5066629;28;20171;-62
2021/11/26 07:47:41;;;;;;;21.30;4.80;;;5.00;99.90;;;;;;5066316;28;20198;-62
2021/11/26 07:50:08;;;;;;;14.10;4.60;;;5.20;99.90;;;;;;5066290;28;20191;-62
2021/11/26 07:52:36;;;;;;;17.10;4.47;;;5.10;99.90;;;;;;5065822;28;20191;-62
2021/11/26 07:55:03;;;;;;;17.87;3.90;;;5.00;99.90;;;;;;5066452;28;20157;-62
2021/11/26 07:57:29;;;;;;;38.90;5.07;;;5.00;99.90;;;;;;5066037;28;20165;-62
2021/11/26 07:59:54;;;;;;;17.53;4.03;;;5.10;99.90;;;;;;5066326;28;20182;-62
2021/11/26 08:02:20;;;;;;;28.87;5.20;;;5.10;99.90;;;;;;5066265;28;20165;-62
2021/11/26 08:04:46;;;;;;;36.33;6.07;;;5.20;99.90;;;;;;5066177;28;20571;-62
2021/11/26 08:07:11;;;;;;;18.67;5.23;;;5.20;99.90;;;;;;5065918;28;20173;-62
2021/11/26 08:09:37;;;;;;;18.53;4.73;;;5.30;99.90;;;;;;5065228;28;20653;-62
2021/11/26 08:12:03;;;;;;;21.03;5.57;;;5.40;99.90;;;;;;5064249;28;20200;-62
2021/11/26 08:14:29;;;;;;;18.77;5.10;;;5.30;99.90;;;;;;5062864;28;20208;-65
2021/11/26 08:16:56;;;;;;;22.43;6.00;;;5.40;99.90;;;;;;5063871;28;20187;-65
2021/11/26 08:19:24;;;;;;;24.43;6.10;;;5.20;99.90;;;;;;5064271;28;20237;-65
2021/11/26 08:21:51;;;;;;;21.03;5.60;;;5.20;99.90;;;;;;5063480;28;20168;-65
2021/11/26 08:24:17;;;;;;;21.13;5.47;;;5.30;99.90;;;;;;5065563;28;20219;-66
2021/11/26 08:26:43;;;;;;;17.57;6.10;;;5.40;99.90;;;;;;5064247;28;20181;-66
2021/11/26 08:29:10;;;;;;;24.10;5.67;;;5.40;99.90;;;;;;5065511;28;20200;-66
2021/11/26 08:31:36;;;;;;;26.13;6.10;;;5.30;99.90;;;;;;5065796;28;20184;-66
2021/11/26 08:34:03;;;;;;;19.83;5.17;;;5.50;99.90;;;;;;5065660;28;20168;-65
2021/11/26 08:36:29;;;;;;;21.20;5.70;;;5.50;99.90;;;;;;5065347;28;20173;-65
2021/11/26 08:38:56;;;;;;;21.37;5.63;;;5.40;99.90;;;;;;5065517;28;20226;-66
2021/11/26 08:41:22;;;;;;;15.97;4.93;;;5.50;99.90;;;;;;5065994;28;20168;-65
2021/11/26 08:43:49;;;;;;;14.10;4.47;;;5.30;99.90;;;;;;5065952;28;20196;-65
2021/11/26 08:46:15;;;;;;;17.07;4.80;;;5.30;99.90;;;;;;5065636;28;20614;-65
2021/11/26 08:48:40;;;;;;;15.43;4.73;;;5.40;99.90;;;;;;5065487;28;20183;-66
2021/11/26 08:51:08;;;;;;;13.17;4.13;;;6.10;99.90;;;;;;5065434;28;20203;-65
2021/11/26 08:53:36;;;;;;;11.83;4.77;;;6.50;99.90;;;;;;5065768;28;20157;-66
2021/11/26 08:56:02;;;;;;;12.33;4.47;;;6.10;99.90;;;;;;5065535;28;20398;-66
2021/11/26 08:58:29;;;;;;;16.80;5.40;;;5.90;99.90;;;;;;5064479;28;20176;-66
2021/11/26 09:00:55;;;;;;;17.80;5.47;;;5.80;99.90;;;;;;5064930;28;20252;-66
2021/11/26 09:03:21;;;;;;;21.67;5.00;;;5.70;99.90;;;;;;5064519;28;20161;-65
2021/11/26 09:05:47;;;;;;;18.93;4.13;;;5.50;99.90;;;;;;5065735;28;20183;-66
2021/11/26 09:08:15;;;;;;;17.47;4.77;;;5.50;99.90;;;;;;5065143;28;20207;-65
2021/11/26 09:10:43;;;;;;;18.43;4.63;;;5.50;99.90;;;;;;5065038;28;20160;-66
2021/11/26 09:13:10;;;;;;;15.40;4.87;;;5.60;99.90;;;;;;5065456;28;20191;-66
2021/11/26 09:15:37;;;;;;;28.70;6.13;;;5.60;99.90;;;;;;5063994;28;20756;-66
2021/11/26 09:18:03;;;;;;;18.37;5.40;;;5.60;99.90;;;;;;5065324;28;20199;-66
2021/11/26 09:20:30;;;;;;;17.37;4.97;;;5.60;99.90;;;;;;5065553;28;20187;-66
2021/11/26 09:22:56;;;;;;;11.40;4.70;;;5.50;99.90;;;;;;5065187;28;20199;-66
2021/11/26 09:25:21;;;;;;;25.50;5.27;;;5.50;99.90;;;;;;5065339;28;20165;-66
2021/11/26 09:27:47;;;;;;;26.67;5.30;;;5.50;99.90;;;;;;5065230;28;20537;-65
2021/11/26 09:30:16;;;;;;;16.50;4.93;;;5.50;99.90;;;;;;5065377;28;20211;-66
2021/11/26 09:32:42;;;;;;;13.57;4.57;;;5.50;99.90;;;;;;5065132;28;20192;-66
2021/11/26 09:35:08;;;;;;;15.17;4.93;;;5.60;99.90;;;;;;5068283;28;20208;-66
2021/11/26 09:37:34;;;;;;;11.03;4.63;;;5.50;99.90;;;;;;5068083;28;20168;-66
2021/11/26 09:40:00;;;;;;;15.17;4.27;;;5.70;99.90;;;;;;5067322;28;20219;-66
2021/11/26 09:42:28;;;;;;;22.23;5.40;;;5.70;99.90;;;;;;5069089;28;20164;-66
2021/11/26 09:44:56;;;;;;;17.63;4.27;;;5.70;99.90;;;;;;5068706;28;20232;-66
2021/11/26 09:47:22;;;;;;;20.90;4.80;;;5.60;99.90;;;;;;5068774;28;20168;-66
2021/11/26 09:49:48;;;;;;;10.77;3.93;;;5.70;99.90;;;;;;5068773;28;20173;-66
2021/11/26 09:52:13;;;;;;;13.57;4.40;;;5.70;99.90;;;;;;5068216;28;20196;-65
2021/11/26 09:54:42;;;;;;;10.83;3.83;;;5.70;99.90;;;;;;5067484;28;20161;-66
2021/11/26 09:57:09;;;;;;;25.67;5.13;;;5.70;99.90;;;;;;5068498;28;20169;-66
2021/11/26 09:59:37;;;;;;;30.80;5.63;;;5.80;99.90;;;;;;5068408;28;20275;-66
2021/11/26 10:02:17;;;;;;;16.67;4.37;;;6.00;99.90;;;;;;5068786;28;20165;-66
2021/11/26 10:04:43;;;;;;;12.80;4.47;;;6.00;99.90;;;;;;5067224;28;20616;-66
2021/11/26 10:07:10;;;;;;;13.33;4.23;;;6.00;99.90;;;;;;5068241;28;20232;-66
2021/11/26 10:09:38;;;;;;;14.90;4.00;;;5.90;99.90;;;;;;5066728;28;20176;-66
2021/11/26 10:12:10;;;;;;;8.63;3.40;;;5.90;99.90;;;;;;5068698;28;20212;-67
2021/11/26 10:14:42;;;;;;;14.57;3.97;;;5.90;99.90;;;;;;5068259;28;20227;-66
2021/11/26 10:17:13;;;;;;;11.63;4.17;;;5.70;99.90;;;;;;5068583;28;20180;-66
2021/11/26 10:19:38;;;;;;;11.47;4.20;;;5.70;99.90;;;;;;5068146;28;20563;-66
2021/11/26 10:22:28;;;;;;;11.63;4.27;;;5.70;99.90;;;;;;5068225;28;20168;-66
2021/11/26 10:24:56;;;;;;;14.60;3.90;;;5.70;99.90;;;;;;5068250;28;20164;-66
2021/11/26 10:27:55;;;;;;;8.13;3.87;;;5.80;99.90;;;;;;5067803;28;20161;-66
2021/11/26 10:30:28;;;;;;;9.00;3.97;;;5.80;99.90;;;;;;5067798;28;20173;-66
2021/11/26 10:32:58;;;;;;;13.27;3.83;;;5.80;99.90;;;;;;5068206;28;20180;-66
2021/11/26 10:35:29;;;;;;;9.77;4.27;;;5.70;99.90;;;;;;5068249;28;20232;-66
2021/11/26 10:37:56;;;;;;;13.00;5.37;;;5.70;99.90;;;;;;5066491;28;20184;-65
2021/11/26 10:40:24;;;;;;;13.17;4.43;;;5.80;99.90;;;;;;5067951;28;20500;-65
2021/11/26 10:42:50;;;;;;;14.97;4.77;;;5.70;99.90;;;;;;5068048;28;20630;-66
2021/11/26 10:46:28;;;;;;;16.53;4.90;;;5.50;99.90;;;;;;5067178;28;20165;-66
2021/11/26 10:51:42;;;;;;;21.33;5.17;;;5.50;99.90;;;;;;5067861;28;20179;-66
2021/11/26 10:59:22;;;;;;;6.90;4.17;;;5.60;99.90;;;;;;5067566;28;20184;-65
2021/11/26 11:01:48;;;;;;;14.70;5.10;;;5.60;99.90;;;;;;5067388;28;20152;-65
2021/11/26 11:04:16;;;;;;;7.33;4.67;;;5.60;99.90;;;;;;5067343;28;20165;-66
2021/11/26 11:06:43;;;;;;;12.55;5.03;;;5.60;99.90;;;;;;5066200;28;20415;-66
2021/11/26 11:09:11;;;;;;;9.97;4.40;;;5.70;99.90;;;;;;5067105;28;20181;-65
2021/11/26 11:11:51;;;;;;;8.63;4.03;;;5.80;99.90;;;;;;5065941;28;20181;-66
2021/11/26 11:14:21;;;;;;;9.13;3.83;;;5.80;99.90;;;;;;5066982;28;20235;-66
2021/11/26 11:16:53;;;;;;;10.70;3.57;;;5.70;99.90;;;;;;5067229;28;20172;-66
2021/11/26 11:19:20;;;;;;;11.63;3.67;;;5.70;99.90;;;;;;5066786;28;20165;-65
2021/11/26 11:21:47;;;;;;;9.63;3.80;;;5.70;99.90;;;;;;5066918;28;20181;-66
2021/11/26 11:24:16;;;;;;;9.40;3.73;;;5.80;99.90;;;;;;5065886;28;20183;-66
2021/11/26 11:26:47;;;;;;;7.97;3.33;;;5.80;99.90;;;;;;5066998;28;20168;-66
2021/11/26 11:29:14;;;;;;;5.47;3.60;;;5.70;99.90;;;;;;5065994;28;20176;-66
2021/11/26 11:31:41;;;;;;;9.63;3.40;;;5.70;99.90;;;;;;5066841;28;20283;-66
2021/11/26 11:34:08;;;;;;;7.63;3.23;;;5.70;99.90;;;;;;5066703;28;20161;-66
2021/11/26 11:36:36;;;;;;;12.87;4.13;;;5.70;99.90;;;;;;5066322;28;20156;-66
2021/11/26 11:39:04;;;;;;;11.23;4.50;;;5.70;99.90;;;;;;5066093;28;20411;-66
2021/11/26 11:41:42;;;;;;;10.20;4.20;;;5.70;99.90;;;;;;5066673;28;20407;-66
2021/11/26 11:44:07;;;;;;;14.43;4.53;;;5.70;99.90;;;;;;5066497;28;20156;-66
2021/11/26 11:46:36;;;;;;;7.57;4.47;;;6.10;99.90;;;;;;5066629;28;20630;-67
2021/11/26 11:49:02;;;;;;;7.87;3.90;;;6.00;99.90;;;;;;5066334;28;20648;-66
2021/11/26 11:51:33;;;;;;;9.57;5.17;;;5.90;99.90;;;;;;5066035;28;20242;-66
2021/11/26 11:54:12;;;;;;;15.07;6.30;;;5.90;99.90;;;;;;5066270;28;20176;-66
2021/11/26 11:56:50;;;;;;;7.43;4.63;;;5.90;99.90;;;;;;5065623;28;20184;-65
2021/11/26 11:59:31;;;;;;;9.00;3.90;;;5.80;99.90;;;;;;5066117;28;20196;-65
2021/11/26 12:01:58;;;;;;;8.90;4.50;;;5.70;99.90;;;;;;5066405;28;20141;-66
2021/11/26 12:04:26;;;;;;;11.43;4.83;;;5.70;99.90;;;;;;5065591;28;20252;-66
2021/11/26 12:06:53;;;;;;;6.40;3.67;;;5.70;99.90;;;;;;5065642;28;20164;-66
2021/11/26 12:09:28;;;;;;;16.07;4.93;;;5.70;99.90;;;;;;5065984;28;20179;-65
2021/11/26 12:12:23;;;;;;;6.27;4.37;;;5.70;99.90;;;;;;5065901;28;20186;-66
2021/11/26 12:14:52;;;;;;;10.05;5.07;;;5.70;99.90;;;;;;5055273;28;20440;-65
2021/11/26 12:17:35;;;;;;;12.60;5.20;;;5.80;99.90;;;;;;5066127;28;20184;-66
2021/11/26 12:20:18;;;;;;;12.20;5.80;;;5.70;99.90;;;;;;5065603;28;20164;-65
2021/11/26 12:22:58;;;;;;;18.17;6.30;;;5.80;99.90;;;;;;5065715;28;20180;-65
2021/11/26 12:25:36;;;;;;;10.83;4.80;;;5.70;99.90;;;;;;5066016;28;20206;-65
2021/11/26 12:28:10;;;;;;;10.33;5.00;;;5.60;99.90;;;;;;5065554;28;20171;-65
2021/11/26 12:30:40;;;;;;;9.60;5.20;;;5.70;99.90;;;;;;5065669;28;20168;-66
2021/11/26 12:33:17;;;;;;;8.38;5.10;;;5.70;99.90;;;;;;5065123;28;20854;-66
2021/11/26 12:35:54;;;;;;;11.00;5.07;;;5.70;99.90;;;;;;5064567;28;20179;-66
2021/11/26 12:38:20;;;;;;;10.90;5.60;;;5.80;99.90;;;;;;5064840;28;20169;-66
2021/11/26 12:40:46;;;;;;;14.70;5.63;;;5.80;99.90;;;;;;5064385;28;20167;-66
2021/11/26 12:43:12;;;;;;;12.67;5.60;;;5.80;99.90;;;;;;5066002;28;20226;-66
2021/11/26 12:45:37;;;;;;;12.13;5.87;;;5.80;99.90;;;;;;5065957;28;20192;-66
2021/11/26 12:48:10;;;;;;;8.73;4.77;;;5.80;99.90;;;;;;5065589;28;20169;-66
2021/11/26 12:53:24;;;;;;;10.00;5.20;;;5.90;99.90;;;;;;5065381;28;20187;-66
2021/11/26 12:55:57;;;;;;;8.30;5.33;;;5.80;99.90;;;;;;5065491;28;20167;-65
2021/11/26 12:58:24;;;;;;;11.17;4.77;;;5.80;99.90;;;;;;5065434;28;20207;-66
2021/11/26 13:01:08;;;;;;;11.03;5.53;;;5.80;99.90;;;;;;5065303;28;20169;-66
2021/11/26 13:03:48;;;;;;;6.30;5.17;;;5.80;99.90;;;;;;5065772;28;20196;-66